createdAt,value
2022-08-18T00:00:50.090Z,3.00
2022-08-18T00:04:57.260Z,2.92
2022-08-18T00:09:02.785Z,2.90
2022-08-18T00:13:06.094Z,3.00
2022-08-18T00:17:09.715Z,3.13
2022-08-18T00:21:14.370Z,3.38
2022-08-18T00:25:19.663Z,3.03
2022-08-18T00:29:22.924Z,2.85
2022-08-18T00:33:26.032Z,3.17
2022-08-18T00:37:30.516Z,2.70
2022-08-18T00:41:34.083Z,3.10
2022-08-18T00:45:39.643Z,2.85
2022-08-18T00:49:45.853Z,3.10
2022-08-18T00:53:57.033Z,2.85
2022-08-18T00:58:04.742Z,3.10
2022-08-18T01:02:12.449Z,3.10
2022-08-18T01:06:19.553Z,2.80
2022-08-18T01:10:25.111Z,2.97
2022-08-18T01:14:28.232Z,2.97
2022-08-18T01:18:48.541Z,2.75
2022-08-18T01:23:01.614Z,2.70
2022-08-18T01:27:05.272Z,2.97
2022-08-18T01:31:09.162Z,3.10
2022-08-18T01:35:14.478Z,3.25
2022-08-18T01:41:24.657Z,3.55
2022-08-18T01:43:43.183Z,3.05
2022-08-18T01:47:47.668Z,2.80
2022-08-18T01:52:01.435Z,3.00
2022-08-18T01:56:07.073Z,3.30
2022-08-18T02:00:12.522Z,3.22
2022-08-18T02:04:34.558Z,2.90
2022-08-18T02:08:42.116Z,5.22
2022-08-18T02:12:49.760Z,3.55
2022-08-18T02:16:53.044Z,3.15
2022-08-18T02:21:10.435Z,2.85
2022-08-18T02:25:15.451Z,3.05
2022-08-18T02:29:20.505Z,2.88
2022-08-18T02:33:24.035Z,2.90
2022-08-18T02:37:27.834Z,3.03
2022-08-18T02:41:31.620Z,3.42
2022-08-18T02:45:36.474Z,3.08
2022-08-18T02:49:41.488Z,3.30
2022-08-18T02:53:47.838Z,2.90
2022-08-18T02:57:51.716Z,3.17
2022-08-18T03:02:00.842Z,2.92
2022-08-18T03:06:12.988Z,3.35
2022-08-18T03:10:33.148Z,3.30
2022-08-18T03:14:48.162Z,3.13
2022-08-18T03:19:10.142Z,3.40
2022-08-18T03:27:48.280Z,3.53
2022-08-18T03:32:28.803Z,3.25
2022-08-18T03:36:48.818Z,3.35
2022-08-18T03:41:04.611Z,3.25
2022-08-18T03:45:23.229Z,3.10
2022-08-18T03:49:27.443Z,3.28
2022-08-18T03:53:33.454Z,2.78
2022-08-18T03:57:39.249Z,3.47
2022-08-18T04:01:45.376Z,3.00
2022-08-18T04:05:51.483Z,3.30
2022-08-18T04:09:56.740Z,3.85
2022-08-18T04:14:00.438Z,3.80
2022-08-18T04:18:08.930Z,3.15
2022-08-18T04:22:18.128Z,3.15
2022-08-18T04:26:29.411Z,3.35
2022-08-18T04:30:42.846Z,3.90
2022-08-18T04:35:14.348Z,3.65
2022-08-18T04:39:20.105Z,3.38
2022-08-18T04:43:24.903Z,4.43
2022-08-18T04:47:28.513Z,4.00
2022-08-18T04:52:26.622Z,4.10
2022-08-18T04:56:00.641Z,3.75
2022-08-18T05:00:07.980Z,3.80
2022-08-18T05:04:15.806Z,3.83
2022-08-18T05:08:19.479Z,3.75
2022-08-18T05:12:26.791Z,3.78
2022-08-18T05:16:48.246Z,4.38
2022-08-18T05:20:53.889Z,3.72
2022-08-18T05:25:01.734Z,4.18
2022-08-18T05:29:18.788Z,3.72
2022-08-18T05:33:24.984Z,3.92
2022-08-18T05:37:37.445Z,4.40
2022-08-18T05:41:44.766Z,4.35
2022-08-18T05:45:54.902Z,3.47
2022-08-18T05:50:10.784Z,4.40
2022-08-18T05:54:33.943Z,4.47
2022-08-18T05:58:41.797Z,3.95
2022-08-18T06:02:51.406Z,4.38
2022-08-18T06:06:59.249Z,3.58
2022-08-18T06:11:06.916Z,3.65
2022-08-18T06:15:33.842Z,3.60
2022-08-18T06:19:46.822Z,4.13
2022-08-18T06:24:02.874Z,3.80
2022-08-18T06:28:11.079Z,4.03
2022-08-18T06:32:28.511Z,3.47
2022-08-18T06:36:44.302Z,3.92
2022-08-18T06:40:51.401Z,3.88
2022-08-18T06:45:00.306Z,3.60
2022-08-18T06:49:06.847Z,3.75
2022-08-18T06:53:26.895Z,4.15
2022-08-18T06:57:35.905Z,3.92
2022-08-18T07:01:45.817Z,3.83
2022-08-18T07:06:02.179Z,3.83
2022-08-18T07:10:16.035Z,3.78
2022-08-18T07:14:24.453Z,3.53
2022-08-18T07:18:29.976Z,3.78
2022-08-18T07:22:39.206Z,3.70
2022-08-18T07:27:01.768Z,3.45
2022-08-18T07:31:28.877Z,3.90
2022-08-18T07:35:37.625Z,4.05
2022-08-18T07:39:47.433Z,3.40
2022-08-18T07:44:12.893Z,3.10
2022-08-18T07:48:37.685Z,3.42
2022-08-18T07:52:50.549Z,3.20
2022-08-18T07:57:00.977Z,3.47
2022-08-18T08:01:12.957Z,3.33
2022-08-18T08:05:26.009Z,3.35
2022-08-18T08:09:37.723Z,3.55
2022-08-18T08:13:56.354Z,3.30
2022-08-18T08:18:10.626Z,3.30
2022-08-18T08:22:21.097Z,3.40
2022-08-18T08:26:52.114Z,3.50
2022-08-18T08:31:33.422Z,3.38
2022-08-18T08:35:48.889Z,3.22
2022-08-18T08:40:08.791Z,3.72
2022-08-18T08:44:19.209Z,3.47
2022-08-18T08:48:29.703Z,2.92
2022-08-18T08:52:40.747Z,3.40
2022-08-18T08:56:50.833Z,3.60
2022-08-18T09:00:55.309Z,3.35
2022-08-18T09:05:09.874Z,3.42
2022-08-18T09:09:32.029Z,3.42
2022-08-18T09:14:05.148Z,3.15
2022-08-18T09:18:31.314Z,3.00
2022-08-18T09:22:46.796Z,3.60
2022-08-18T09:26:54.065Z,3.08
2022-08-18T09:31:20.086Z,3.13
2022-08-18T09:35:45.055Z,3.10
2022-08-18T09:40:33.365Z,3.10
2022-08-18T09:45:07.327Z,2.92
2022-08-18T09:49:55.563Z,3.10
2022-08-18T09:54:25.207Z,3.30
2022-08-18T09:59:02.796Z,3.20
2022-08-18T10:03:26.481Z,3.10
2022-08-18T10:07:43.540Z,3.05
2022-08-18T10:12:19.140Z,3.17
2022-08-18T10:17:04.959Z,2.78
2022-08-18T10:21:22.835Z,2.90
2022-08-18T10:25:39.261Z,3.17
2022-08-18T10:29:52.219Z,3.05
2022-08-18T10:34:24.663Z,2.80
2022-08-18T10:38:48.956Z,2.90
2022-08-18T10:42:59.205Z,2.67
2022-08-18T10:47:11.860Z,3.05
2022-08-18T10:51:29.468Z,3.47
2022-08-18T10:56:01.905Z,3.45
2022-08-18T11:00:12.413Z,3.13
2022-08-18T11:04:34.790Z,2.63
2022-08-18T11:08:47.112Z,2.83
2022-08-18T11:13:09.726Z,2.80
2022-08-18T11:17:24.260Z,2.85
2022-08-18T11:21:42.102Z,2.85
2022-08-18T11:25:46.162Z,3.03
2022-08-18T11:29:52.794Z,3.20
2022-08-18T11:33:56.000Z,2.95
2022-08-18T11:38:03.715Z,2.80
2022-08-18T11:42:15.646Z,3.00
2022-08-18T11:46:31.978Z,2.70
2022-08-18T11:50:40.630Z,2.67
2022-08-18T11:55:24.648Z,2.50
2022-08-18T11:59:52.581Z,3.00
2022-08-18T12:03:57.656Z,2.78
2022-08-18T12:08:01.832Z,2.60
2022-08-18T12:12:18.744Z,2.90
2022-08-18T12:16:34.666Z,2.50
2022-08-18T12:20:39.374Z,2.30
2022-08-18T12:24:42.497Z,2.58
2022-08-18T12:28:47.987Z,2.42
2022-08-18T12:33:12.787Z,2.60
2022-08-18T12:37:57.628Z,2.50
2022-08-18T12:41:45.430Z,2.42
2022-08-18T12:45:51.540Z,2.40
2022-08-18T12:49:54.941Z,2.22
2022-08-18T12:54:01.789Z,2.15
2022-08-18T12:58:08.209Z,2.30
2022-08-18T13:02:12.960Z,2.08
2022-08-18T13:06:22.508Z,2.35
2022-08-18T13:10:42.869Z,2.45
2022-08-18T13:15:03.336Z,2.25
2022-08-18T13:19:15.851Z,2.15
2022-08-18T13:23:24.472Z,2.20
2022-08-18T13:27:32.743Z,2.17
2022-08-18T13:31:39.649Z,2.42
2022-08-18T13:35:45.047Z,2.45
2022-08-18T13:39:50.827Z,2.53
2022-08-18T13:43:59.068Z,2.35
2022-08-18T13:48:02.839Z,2.13
2022-08-18T13:52:33.151Z,1.85
2022-08-18T13:56:41.770Z,2.20
2022-08-18T14:05:36.937Z,2.00
2022-08-18T14:09:57.349Z,2.08
2022-08-18T14:14:01.889Z,1.85
2022-08-18T14:18:08.719Z,1.83
2022-08-18T14:22:42.569Z,2.10
2022-08-18T14:26:55.548Z,1.80
2022-08-18T14:31:01.029Z,1.80
2022-08-18T14:35:33.078Z,1.80
2022-08-18T14:39:29.745Z,1.90
2022-08-18T14:44:10.933Z,1.95
2022-08-18T14:47:59.278Z,2.15
2022-08-18T14:52:03.341Z,1.80
2022-08-18T14:56:13.898Z,1.83
2022-08-18T15:00:22.710Z,1.92
2022-08-18T15:04:27.535Z,1.70
2022-08-18T15:08:31.173Z,1.88
2022-08-18T15:12:35.392Z,2.00
2022-08-18T15:16:39.956Z,1.92
2022-08-18T15:21:02.599Z,1.90
2022-08-18T15:25:31.076Z,2.30
2022-08-18T15:29:35.677Z,1.90
2022-08-18T15:33:40.230Z,1.85
2022-08-18T15:37:47.544Z,2.05
2022-08-18T15:41:54.719Z,2.65
2022-08-18T15:45:58.487Z,1.92
2022-08-18T15:50:21.861Z,2.50
2022-08-18T15:54:26.419Z,1.90
2022-08-18T15:58:29.544Z,2.20
2022-08-18T16:02:32.790Z,2.10
2022-08-18T16:06:45.173Z,2.03
2022-08-18T16:10:49.193Z,2.25
2022-08-18T16:14:53.250Z,2.03
2022-08-18T16:18:58.411Z,2.75
2022-08-18T16:23:03.317Z,1.83
2022-08-18T16:27:07.015Z,2.05
2022-08-18T16:31:10.776Z,1.70
2022-08-18T16:35:14.230Z,1.85
2022-08-18T16:39:18.914Z,1.80
2022-08-18T16:43:23.403Z,1.98
2022-08-18T16:47:27.201Z,1.80
2022-08-18T16:51:30.643Z,2.13
2022-08-18T16:55:35.250Z,2.00
2022-08-18T16:59:56.346Z,2.15
2022-08-18T17:04:13.517Z,1.92
2022-08-18T17:08:18.168Z,2.17
2022-08-18T17:12:22.852Z,2.00
2022-08-18T17:16:28.476Z,1.98
2022-08-18T17:20:34.536Z,1.80
2022-08-18T17:24:38.184Z,1.60
2022-08-18T17:29:02.912Z,1.88
2022-08-18T17:33:11.971Z,1.60
2022-08-18T17:37:18.519Z,1.90
2022-08-18T17:41:23.698Z,1.50
2022-08-18T17:45:31.946Z,1.60
2022-08-18T17:50:26.246Z,1.48
2022-08-18T17:54:30.569Z,1.48
2022-08-18T17:58:40.431Z,1.92
2022-08-18T18:02:46.770Z,1.70
2022-08-18T18:06:51.958Z,1.60
2022-08-18T18:11:11.234Z,1.75
2022-08-18T18:15:15.416Z,1.63
2022-08-18T18:19:26.119Z,1.60
2022-08-18T18:23:32.460Z,1.92
2022-08-18T18:27:41.806Z,1.58
2022-08-18T18:31:47.399Z,1.80
2022-08-18T18:35:57.021Z,1.60
2022-08-18T18:40:03.663Z,1.50
2022-08-18T18:44:10.196Z,1.55
2022-08-18T18:48:48.083Z,1.55
2022-08-18T18:52:59.821Z,1.88
2022-08-18T18:57:03.576Z,1.73
2022-08-18T19:01:13.080Z,1.65
2022-08-18T19:05:27.874Z,1.40
2022-08-18T19:09:39.658Z,2.00
2022-08-18T19:13:47.263Z,1.95
2022-08-18T19:18:03.150Z,1.75
2022-08-18T19:22:14.938Z,1.80
2022-08-18T19:26:27.233Z,1.90
2022-08-18T19:30:31.586Z,2.30
2022-08-18T19:34:51.151Z,1.77
2022-08-18T19:39:03.172Z,1.92
2022-08-18T19:43:12.844Z,1.60
2022-08-18T19:47:20.191Z,2.20
2022-08-18T19:51:35.063Z,2.17
2022-08-18T19:55:53.962Z,2.17
2022-08-18T20:00:11.798Z,2.03
2022-08-18T20:04:34.485Z,1.92
2022-08-18T20:09:02.041Z,2.03
2022-08-18T20:13:32.944Z,2.13
2022-08-18T20:18:02.361Z,2.13
2022-08-18T20:22:10.457Z,2.30
2022-08-18T20:26:43.084Z,1.98
2022-08-18T20:31:01.791Z,2.33
2022-08-18T20:35:18.604Z,2.13
2022-08-18T20:39:54.412Z,1.83
2022-08-18T20:44:02.709Z,2.22
2022-08-18T20:48:29.188Z,2.55
2022-08-18T20:52:43.244Z,2.45
2022-08-18T20:56:50.665Z,1.70
2022-08-18T21:00:58.690Z,2.10
2022-08-18T21:05:02.143Z,1.83
2022-08-18T21:09:06.803Z,2.17
2022-08-18T21:13:09.967Z,2.17
2022-08-18T21:17:15.428Z,2.15
2022-08-18T21:21:28.382Z,1.63
2022-08-18T21:25:33.800Z,1.98
2022-08-18T21:29:46.847Z,1.85
2022-08-18T21:33:53.181Z,1.83
2022-08-18T21:38:01.415Z,1.90
2022-08-18T21:42:08.454Z,1.88
2022-08-18T21:46:13.419Z,1.95
2022-08-18T21:50:19.377Z,2.08
2022-08-18T21:54:24.968Z,1.88
2022-08-18T21:58:38.935Z,2.00
2022-08-18T22:02:42.733Z,1.90
2022-08-18T22:06:50.460Z,1.85
2022-08-18T22:12:00.623Z,1.65
2022-08-18T22:16:28.892Z,1.73
2022-08-18T22:20:49.172Z,1.80
2022-08-18T22:24:57.353Z,1.98
2022-08-18T22:29:04.729Z,1.50
2022-08-18T22:33:09.306Z,1.90
2022-08-18T22:37:15.660Z,1.90
2022-08-18T22:41:23.309Z,1.80
2022-08-18T22:45:26.684Z,1.77
2022-08-18T22:49:35.889Z,1.60
2022-08-18T22:53:39.200Z,1.30
2022-08-18T22:57:46.242Z,1.73
2022-08-18T23:01:51.885Z,1.67
2022-08-18T23:05:56.357Z,1.40
2022-08-18T23:10:00.059Z,1.70
2022-08-18T23:14:03.424Z,1.55
2022-08-18T23:18:07.682Z,1.65
2022-08-18T23:22:12.471Z,1.70
2022-08-18T23:26:15.577Z,1.58
2022-08-18T23:30:18.683Z,1.70
2022-08-18T23:34:24.443Z,1.85
2022-08-18T23:38:31.587Z,1.50
2022-08-18T23:42:34.981Z,1.20
2022-08-18T23:46:38.106Z,1.70
2022-08-18T23:50:43.372Z,1.70
2022-08-18T23:54:48.397Z,1.40
2022-08-18T23:58:54.006Z,1.80
